Time;durP1;ratioP1;P1;durP2;ratioP2;P2;SDS_P1;SDS_P2;PMS_P1;PMS_P2;Temp;Humidity;BMP_temperature;BMP_pressure;BME280_temperature;BME280_humidity;BME280_pressure;Samples;Min_cycle;Max_cycle;Signal;HPM_P1;HPM_P2
2022/05/25 00:02:11;;;;;;;8.07;3.08;;;;;;;;;;5056089;28;20056;-64
2022/05/25 00:04:37;;;;;;;7.97;3.22;;;;;;;;;;5056011;28;20393;-64
2022/05/25 00:07:03;;;;;;;5.68;2.92;;;;;;;;;;5056047;28;20500;-64
2022/05/25 00:09:30;;;;;;;11.27;3.17;;;;;;;;;;5056153;28;20029;-64
2022/05/25 00:11:56;;;;;;;9.23;3.45;;;;;;;;;;5056079;28;20021;-64
2022/05/25 00:14:22;;;;;;;12.00;3.78;;;;;;;;;;5056220;28;20044;-64
2022/05/25 00:16:48;;;;;;;7.30;3.35;;;;;;;;;;5055961;28;20028;-64
2022/05/25 00:21:59;;;;;;;12.48;4.10;;;;;;;;;;5056006;28;20036;-64
2022/05/25 00:24:25;;;;;;;13.00;4.13;;;;;;;;;;5056009;28;20112;-64
2022/05/25 00:26:51;;;;;;;11.80;4.47;;;;;;;;;;5055724;28;20025;-64
2022/05/25 00:29:17;;;;;;;11.20;4.70;;;;;;;;;;5055775;28;20095;-64
2022/05/25 00:31:43;;;;;;;14.80;4.97;;;;;;;;;;5055520;28;20104;-64
2022/05/25 00:34:09;;;;;;;14.32;4.45;;;;;;;;;;5055420;28;20033;-63
2022/05/25 00:36:35;;;;;;;11.05;4.50;;;;;;;;;;5055535;28;20024;-64
2022/05/25 00:39:02;;;;;;;13.38;5.00;;;;;;;;;;5055198;28;20037;-64
2022/05/25 00:41:28;;;;;;;12.75;4.07;;;;;;;;;;5055440;28;20025;-64
2022/05/25 00:43:55;;;;;;;10.52;4.82;;;;;;;;;;5055519;28;20115;-64
2022/05/25 00:46:21;;;;;;;15.23;4.95;;;;;;;;;;5055448;28;20535;-64
2022/05/25 00:48:52;;;;;;;15.43;5.50;;;;;;;;;;5054440;28;20033;-64
2022/05/25 00:51:26;;;;;;;12.60;5.35;;;;;;;;;;5055292;28;20362;-64
2022/05/25 00:54:18;;;;;;;12.15;5.40;;;;;;;;;;5055223;28;20497;-64
2022/05/25 00:56:47;;;;;;;8.68;4.80;;;;;;;;;;5054795;28;20386;-64
2022/05/25 00:59:32;;;;;;;6.85;4.72;;;;;;;;;;5052229;28;20037;-65
2022/05/25 01:01:59;;;;;;;10.95;5.82;;;;;;;;;;5052337;28;20035;-64
2022/05/25 01:04:26;;;;;;;13.43;5.28;;;;;;;;;;5053189;28;20025;-64
2022/05/25 01:06:58;;;;;;;11.85;5.07;;;;;;;;;;5054519;28;20017;-64
2022/05/25 01:09:33;;;;;;;21.83;4.97;;;;;;;;;;5055147;28;20377;-64
2022/05/25 01:12:02;;;;;;;11.13;5.32;;;;;;;;;;5054887;28;20434;-64
2022/05/25 01:14:47;;;;;;;11.27;5.25;;;;;;;;;;5054194;28;20501;-64
2022/05/25 01:17:30;;;;;;;13.48;5.43;;;;;;;;;;5054622;28;20074;-65
2022/05/25 01:20:02;;;;;;;12.10;5.35;;;;;;;;;;5054691;28;20075;-64
2022/05/25 01:22:34;;;;;;;9.93;5.15;;;;;;;;;;5054808;28;20025;-64
2022/05/25 01:25:06;;;;;;;18.10;5.22;;;;;;;;;;5054784;28;20061;-64
2022/05/25 01:27:35;;;;;;;10.70;5.57;;;;;;;;;;5054294;28;20155;-64
2022/05/25 01:30:16;;;;;;;16.75;5.22;;;;;;;;;;5054314;28;20056;-64
2022/05/25 01:32:52;;;;;;;11.32;5.55;;;;;;;;;;5054625;28;20052;-64
2022/05/25 01:35:26;;;;;;;11.25;5.72;;;;;;;;;;5054466;28;20401;-64
2022/05/25 01:37:55;;;;;;;14.32;6.20;;;;;;;;;;5054378;28;20024;-64
2022/05/25 01:40:24;;;;;;;13.55;5.40;;;;;;;;;;5054449;28;20033;-64
2022/05/25 01:42:55;;;;;;;10.18;5.32;;;;;;;;;;5054280;28;20017;-64
2022/05/25 01:45:22;;;;;;;12.00;5.53;;;;;;;;;;5054387;28;20043;-64
2022/05/25 01:47:50;;;;;;;12.27;5.07;;;;;;;;;;5054183;28;20098;-63
2022/05/25 01:50:20;;;;;;;18.55;5.80;;;;;;;;;;5054357;28;20074;-64
2022/05/25 01:52:47;;;;;;;13.32;5.90;;;;;;;;;;5054154;28;20103;-64
2022/05/25 01:55:16;;;;;;;13.07;6.00;;;;;;;;;;5054276;28;20116;-64
2022/05/25 01:57:44;;;;;;;15.55;5.60;;;;;;;;;;5053867;28;20082;-64
2022/05/25 02:00:11;;;;;;;13.18;6.10;;;;;;;;;;5053888;28;20366;-64
2022/05/25 02:05:22;;;;;;;13.07;5.80;;;;;;;;;;5054023;28;20063;-64
2022/05/25 02:07:58;;;;;;;12.73;5.57;;;;;;;;;;5053816;28;20049;-64
2022/05/25 02:10:24;;;;;;;12.02;5.45;;;;;;;;;;5053683;28;20104;-64
2022/05/25 02:12:52;;;;;;;20.20;5.55;;;;;;;;;;5054101;28;20108;-64
2022/05/25 02:15:27;;;;;;;11.23;5.40;;;;;;;;;;5053860;28;20032;-64
2022/05/25 02:17:56;;;;;;;13.80;5.85;;;;;;;;;;5053676;28;20037;-64
2022/05/25 02:20:31;;;;;;;16.42;6.57;;;;;;;;;;5053453;28;20592;-63
2022/05/25 02:22:59;;;;;;;17.52;6.75;;;;;;;;;;5054173;28;20421;-65
2022/05/25 02:25:45;;;;;;;12.98;5.32;;;;;;;;;;5053836;28;20052;-64
2022/05/25 02:28:18;;;;;;;11.18;6.05;;;;;;;;;;5053820;28;20029;-64
2022/05/25 02:30:47;;;;;;;11.18;5.97;;;;;;;;;;5053652;28;20099;-64
2022/05/25 02:33:16;;;;;;;9.70;5.60;;;;;;;;;;5053373;28;20025;-64
2022/05/25 02:35:43;;;;;;;15.20;5.78;;;;;;;;;;5053578;28;20025;-64
2022/05/25 02:38:09;;;;;;;8.90;5.90;;;;;;;;;;5053546;28;20481;-64
2022/05/25 02:40:37;;;;;;;12.93;5.68;;;;;;;;;;5053074;28;20112;-65
2022/05/25 02:43:04;;;;;;;13.93;5.15;;;;;;;;;;5053103;28;20410;-64
2022/05/25 02:45:30;;;;;;;10.68;5.50;;;;;;;;;;5053344;28;20115;-64
2022/05/25 02:47:56;;;;;;;11.73;5.65;;;;;;;;;;5053863;28;20025;-64
2022/05/25 02:50:22;;;;;;;11.68;5.72;;;;;;;;;;5053502;28;20382;-64
2022/05/25 02:52:48;;;;;;;17.83;5.55;;;;;;;;;;5053337;28;20021;-64
2022/05/25 02:55:14;;;;;;;11.25;5.10;;;;;;;;;;5053229;28;20043;-64
2022/05/25 02:57:40;;;;;;;10.40;4.20;;;;;;;;;;5052890;28;20023;-64
2022/05/25 03:00:07;;;;;;;11.57;4.40;;;;;;;;;;5053199;28;20119;-65
2022/05/25 03:02:33;;;;;;;8.63;4.35;;;;;;;;;;5053019;28;20469;-64
2022/05/25 03:04:59;;;;;;;11.55;4.07;;;;;;;;;;5053129;28;20025;-64
2022/05/25 03:07:25;;;;;;;15.45;4.18;;;;;;;;;;5053176;28;20017;-64
2022/05/25 03:09:52;;;;;;;10.50;4.53;;;;;;;;;;5052737;28;20096;-65
2022/05/25 03:12:18;;;;;;;8.95;4.30;;;;;;;;;;5053029;28;20044;-64
2022/05/25 03:14:44;;;;;;;8.73;3.65;;;;;;;;;;5052956;28;20469;-64
2022/05/25 03:17:14;;;;;;;18.77;4.18;;;;;;;;;;5052590;28;20090;-65
2022/05/25 03:19:40;;;;;;;10.77;4.32;;;;;;;;;;5052781;28;20044;-64
2022/05/25 03:22:07;;;;;;;8.98;4.60;;;;;;;;;;5052994;28;20108;-64
2022/05/25 03:24:33;;;;;;;9.23;4.35;;;;;;;;;;5052908;28;20032;-64
2022/05/25 03:26:59;;;;;;;11.57;4.65;;;;;;;;;;5052926;28;20023;-64
2022/05/25 03:29:26;;;;;;;12.05;5.05;;;;;;;;;;5052948;28;20074;-64
2022/05/25 03:31:52;;;;;;;9.13;5.13;;;;;;;;;;5052845;28;20021;-64
2022/05/25 03:34:18;;;;;;;9.98;5.18;;;;;;;;;;5052713;28;20065;-64
2022/05/25 03:36:45;;;;;;;8.65;4.32;;;;;;;;;;5052632;28;20029;-64
2022/05/25 03:39:11;;;;;;;6.82;4.50;;;;;;;;;;5052811;28;20119;-64
2022/05/25 03:41:37;;;;;;;11.23;5.05;;;;;;;;;;5052595;28;20021;-64
2022/05/25 03:44:03;;;;;;;16.58;4.82;;;;;;;;;;5052847;28;20075;-64
2022/05/25 03:46:29;;;;;;;15.00;4.90;;;;;;;;;;5052625;28;20469;-64
2022/05/25 03:48:55;;;;;;;17.52;5.38;;;;;;;;;;5052593;28;20072;-64
2022/05/25 03:51:22;;;;;;;9.63;5.47;;;;;;;;;;5052493;28;20025;-64
2022/05/25 03:53:49;;;;;;;13.10;4.78;;;;;;;;;;5052355;28;20045;-64
2022/05/25 03:56:16;;;;;;;11.27;4.97;;;;;;;;;;5052618;28;20539;-64
2022/05/25 03:58:43;;;;;;;16.63;5.40;;;;;;;;;;5052616;28;20072;-64
2022/05/25 04:01:09;;;;;;;12.30;4.97;;;;;;;;;;5052529;28;20512;-64
2022/05/25 04:03:35;;;;;;;11.60;4.97;;;;;;;;;;5052579;28;20552;-64
2022/05/25 04:06:01;;;;;;;9.30;4.88;;;;;;;;;;5052306;28;20029;-64
2022/05/25 04:08:27;;;;;;;10.25;4.82;;;;;;;;;;5052343;28;20151;-64
2022/05/25 04:10:53;;;;;;;9.32;4.63;;;;;;;;;;5052232;28;20084;-65
2022/05/25 04:13:20;;;;;;;13.38;5.55;;;;;;;;;;5052255;28;20370;-64
2022/05/25 04:15:46;;;;;;;14.20;4.75;;;;;;;;;;5052507;28;20473;-64
2022/05/25 04:18:12;;;;;;;18.58;5.47;;;;;;;;;;5052343;28;20031;-65
2022/05/25 04:20:38;;;;;;;10.95;5.10;;;;;;;;;;5052063;28;20033;-65
2022/05/25 04:23:08;;;;;;;11.98;4.75;;;;;;;;;;5052077;28;20029;-64
2022/05/25 04:25:34;;;;;;;16.75;4.50;;;;;;;;;;5055007;28;20581;-65
2022/05/25 04:28:00;;;;;;;10.85;5.15;;;;;;;;;;5055854;28;20469;-65
2022/05/25 04:30:27;;;;;;;8.52;3.63;;;;;;;;;;5055653;28;20033;-65
2022/05/25 04:32:54;;;;;;;13.30;3.65;;;;;;;;;;5055634;28;20122;-65
2022/05/25 04:35:20;;;;;;;9.82;3.85;;;;;;;;;;5055453;28;20056;-65
2022/05/25 04:37:49;;;;;;;16.00;3.30;;;;;;;;;;5055730;28;20081;-65
2022/05/25 04:40:21;;;;;;;11.80;3.70;;;;;;;;;;5055828;28;20037;-65
2022/05/25 04:42:47;;;;;;;8.30;3.65;;;;;;;;;;5055410;28;20024;-65
2022/05/25 04:45:14;;;;;;;9.82;3.65;;;;;;;;;;5055454;28;20036;-65
2022/05/25 04:47:40;;;;;;;10.18;3.65;;;;;;;;;;5055587;28;20389;-65
2022/05/25 04:50:07;;;;;;;13.35;3.67;;;;;;;;;;5055536;28;20044;-65
2022/05/25 04:52:37;;;;;;;12.13;3.50;;;;;;;;;;5055217;28;20469;-65
2022/05/25 04:55:04;;;;;;;6.97;3.97;;;;;;;;;;5055517;28;20037;-65
2022/05/25 04:57:30;;;;;;;8.20;4.03;;;;;;;;;;5055719;28;20032;-65
2022/05/25 05:00:01;;;;;;;9.82;3.55;;;;;;;;;;5055067;28;20039;-65
2022/05/25 05:02:29;;;;;;;9.95;3.42;;;;;;;;;;5054775;28;20422;-66
2022/05/25 05:04:55;;;;;;;15.55;3.70;;;;;;;;;;5054865;28;20370;-65
2022/05/25 05:07:29;;;;;;;7.82;3.35;;;;;;;;;;5054779;28;20124;-65
2022/05/25 05:09:55;;;;;;;6.13;3.35;;;;;;;;;;5055199;28;20086;-65
2022/05/25 05:12:21;;;;;;;13.25;4.25;;;;;;;;;;5055243;28;20420;-65
2022/05/25 05:14:47;;;;;;;9.98;3.90;;;;;;;;;;5054636;28;20028;-66
2022/05/25 05:17:13;;;;;;;9.07;3.85;;;;;;;;;;5054465;28;20032;-65
2022/05/25 05:19:39;;;;;;;5.90;3.80;;;;;;;;;;5054731;28;20025;-65
2022/05/25 05:22:05;;;;;;;11.30;3.90;;;;;;;;;;5055040;28;20031;-66
2022/05/25 05:24:32;;;;;;;15.98;4.32;;;;;;;;;;5054960;28;20057;-65
2022/05/25 05:26:58;;;;;;;9.73;3.70;;;;;;;;;;5054526;28;20056;-65
2022/05/25 05:29:26;;;;;;;9.38;4.18;;;;;;;;;;5054905;28;20427;-65
2022/05/25 05:31:52;;;;;;;10.43;3.75;;;;;;;;;;5054695;28;20052;-66
2022/05/25 05:34:19;;;;;;;15.45;4.07;;;;;;;;;;5054241;28;20028;-66
2022/05/25 05:36:50;;;;;;;9.43;3.85;;;;;;;;;;5054199;28;20029;-66
2022/05/25 05:39:17;;;;;;;11.60;3.40;;;;;;;;;;5054484;28;20033;-66
2022/05/25 05:41:46;;;;;;;7.38;3.10;;;;;;;;;;5054647;28;20017;-65
2022/05/25 05:44:14;;;;;;;7.10;3.20;;;;;;;;;;5054260;28;20052;-66
2022/05/25 05:46:42;;;;;;;11.63;3.58;;;;;;;;;;5054335;28;20021;-66
2022/05/25 05:49:12;;;;;;;15.45;4.55;;;;;;;;;;5052545;28;20121;-65
2022/05/25 05:51:38;;;;;;;10.48;3.67;;;;;;;;;;5053930;28;20017;-66
2022/05/25 05:54:04;;;;;;;17.20;3.78;;;;;;;;;;5053820;28;20114;-66
2022/05/25 05:56:32;;;;;;;10.40;3.58;;;;;;;;;;5053157;28;20100;-65
2022/05/25 05:58:58;;;;;;;9.88;3.95;;;;;;;;;;5053912;28;20389;-65
2022/05/25 06:01:24;;;;;;;10.95;4.10;;;;;;;;;;5053860;28;20465;-68
2022/05/25 06:03:50;;;;;;;14.88;4.15;;;;;;;;;;5053589;28;20057;-66
2022/05/25 06:06:17;;;;;;;14.48;5.10;;;;;;;;;;5050578;28;20408;-69
2022/05/25 06:08:46;;;;;;;10.05;4.32;;;;;;;;;;5053019;28;20473;-65
2022/05/25 06:11:13;;;;;;;17.05;5.65;;;;;;;;;;5053304;28;20079;-64
2022/05/25 06:13:39;;;;;;;9.15;4.57;;;;;;;;;;5053499;28;20017;-65
2022/05/25 06:21:34;;;;;;;17.38;4.18;;;;;;;;;;5072859;28;20067;-71
2022/05/25 06:24:01;;;;;;;12.00;4.30;;;;;;;;;;5072892;28;20020;-67
2022/05/25 06:26:33;;;;;;;12.13;4.05;;;;;;;;;;5072177;28;20388;-66
2022/05/25 06:29:00;;;;;;;16.83;4.78;;;;;;;;;;5049971;28;20087;-68
2022/05/25 06:31:26;;;;;;;11.75;4.35;;;;;;;;;;5034181;28;20049;-66
2022/05/25 06:33:52;;;;;;;12.88;4.25;;;;;;;;;;5046752;28;20111;-67
2022/05/25 06:36:23;;;;;;;10.23;4.25;;;;;;;;;;5072787;28;20457;-66
2022/05/25 06:38:49;;;;;;;12.52;3.95;;;;;;;;;;5072945;28;20637;-64
2022/05/25 06:41:16;;;;;;;28.08;4.25;;;;;;;;;;5072483;28;20085;-65
2022/05/25 06:43:42;;;;;;;8.75;4.18;;;;;;;;;;5072738;28;20557;-65
2022/05/25 06:46:09;;;;;;;15.15;4.38;;;;;;;;;;5066081;28;20039;-66
2022/05/25 06:48:35;;;;;;;14.38;4.35;;;;;;;;;;5059299;28;20363;-66
2022/05/25 06:51:14;;;;;;;10.18;4.53;;;;;;;;;;5057067;28;20039;-67
2022/05/25 06:53:40;;;;;;;14.43;5.18;;;;;;;;;;5057747;28;20152;-66
2022/05/25 06:56:06;;;;;;;14.55;4.72;;;;;;;;;;5062280;28;20029;-68
2022/05/25 06:58:33;;;;;;;16.33;5.40;;;;;;;;;;5054977;28;20025;-69
2022/05/25 07:00:59;;;;;;;9.27;4.35;;;;;;;;;;5052994;28;20029;-67
2022/05/25 07:03:25;;;;;;;21.70;5.10;;;;;;;;;;5060677;28;20108;-67
2022/05/25 07:05:52;;;;;;;12.55;4.57;;;;;;;;;;5071060;28;20492;-68
2022/05/25 07:08:18;;;;;;;12.50;5.10;;;;;;;;;;5072576;28;20019;-68
2022/05/25 07:10:48;;;;;;;13.95;5.53;;;;;;;;;;5073140;28;20097;-66
2022/05/25 07:13:14;;;;;;;12.57;4.63;;;;;;;;;;5070243;28;20032;-66
2022/05/25 07:15:40;;;;;;;18.20;5.60;;;;;;;;;;5070908;28;20029;-66
2022/05/25 07:18:06;;;;;;;25.70;5.07;;;;;;;;;;5070703;28;20025;-66
2022/05/25 07:20:33;;;;;;;13.45;5.20;;;;;;;;;;5070547;28;20536;-69
2022/05/25 07:22:59;;;;;;;9.18;4.90;;;;;;;;;;5070721;28;20028;-70
2022/05/25 07:25:25;;;;;;;13.57;4.85;;;;;;;;;;5070423;28;20032;-67
2022/05/25 07:27:52;;;;;;;16.73;5.35;;;;;;;;;;5071063;28;20516;-69
2022/05/25 07:30:18;;;;;;;12.23;5.22;;;;;;;;;;5070830;28;20020;-67
2022/05/25 07:32:45;;;;;;;14.43;4.60;;;;;;;;;;5072432;28;20377;-67
2022/05/25 07:35:11;;;;;;;10.20;4.63;;;;;;;;;;5068579;28;20017;-66
2022/05/25 07:37:40;;;;;;;13.55;4.32;;;;;;;;;;5067763;28;20044;-66
2022/05/25 07:40:07;;;;;;;14.35;4.80;;;;;;;;;;5068626;28;20052;-66
2022/05/25 07:42:34;;;;;;;13.35;5.45;;;;;;;;;;5072481;28;20385;-66
2022/05/25 07:45:01;;;;;;;25.02;5.22;;;;;;;;;;5070672;28;20086;-66
2022/05/25 07:47:28;;;;;;;13.88;4.72;;;;;;;;;;5069684;28;20020;-66
2022/05/25 07:49:54;;;;;;;15.77;5.38;;;;;;;;;;5070620;28;20366;-69
2022/05/25 07:52:21;;;;;;;10.85;4.78;;;;;;;;;;5071030;28;20435;-67
2022/05/25 07:54:47;;;;;;;21.00;6.22;;;;;;;;;;5071252;28;20113;-67
2022/05/25 07:57:13;;;;;;;14.65;4.93;;;;;;;;;;5071182;28;20107;-67
2022/05/25 07:59:40;;;;;;;11.77;4.93;;;;;;;;;;5074001;28;20117;-67
2022/05/25 08:07:40;;;;;;;20.05;5.72;;;;;;;;;;5075972;28;20059;-67
2022/05/25 08:10:11;;;;;;;17.33;6.20;;;;;;;;;;5075870;28;20036;-66
2022/05/25 08:12:38;;;;;;;19.20;5.57;;;;;;;;;;5076052;28;20021;-67
2022/05/25 08:15:05;;;;;;;18.00;6.03;;;;;;;;;;5076119;28;20025;-67
2022/05/25 08:17:31;;;;;;;15.88;5.57;;;;;;;;;;5075871;28;20077;-67
2022/05/25 08:19:57;;;;;;;17.08;5.65;;;;;;;;;;5075515;28;20032;-66
2022/05/25 08:22:25;;;;;;;17.35;6.00;;;;;;;;;;5075812;28;20021;-67
2022/05/25 08:24:51;;;;;;;17.38;5.78;;;;;;;;;;5074410;28;20017;-66
2022/05/25 08:27:17;;;;;;;22.90;5.72;;;;;;;;;;5075880;28;20182;-67
2022/05/25 08:29:44;;;;;;;25.42;6.10;;;;;;;;;;5075773;28;20022;-67
2022/05/25 08:32:10;;;;;;;17.15;5.40;;;;;;;;;;5075794;28;20388;-67
2022/05/25 08:34:36;;;;;;;18.55;5.40;;;;;;;;;;5075884;28;20032;-72
2022/05/25 08:37:03;;;;;;;27.00;6.80;;;;;;;;;;5075512;28;20024;-67
2022/05/25 08:39:29;;;;;;;20.40;5.88;;;;;;;;;;5074478;28;20052;-67
2022/05/25 08:41:56;;;;;;;22.85;6.25;;;;;;;;;;5074229;28;20594;-67
2022/05/25 08:44:23;;;;;;;23.42;5.50;;;;;;;;;;5074750;28;20027;-67
2022/05/25 08:46:55;;;;;;;28.05;6.30;;;;;;;;;;5075256;28;20093;-67
2022/05/25 08:49:21;;;;;;;19.48;6.32;;;;;;;;;;5075662;28;20461;-66
2022/05/25 08:51:49;;;;;;;14.68;5.68;;;;;;;;;;5075147;28;20020;-67
2022/05/25 08:54:16;;;;;;;24.08;6.10;;;;;;;;;;5073280;28;20443;-67
2022/05/25 08:56:49;;;;;;;20.83;5.60;;;;;;;;;;5072604;28;20027;-67
2022/05/25 08:59:15;;;;;;;17.58;5.15;;;;;;;;;;5073273;28;20067;-67
2022/05/25 09:01:43;;;;;;;15.73;5.43;;;;;;;;;;5075115;28;20056;-67
2022/05/25 09:04:13;;;;;;;23.27;6.28;;;;;;;;;;5075040;28;20102;-67
2022/05/25 09:06:58;;;;;;;17.45;5.22;;;;;;;;;;5075096;28;20103;-66
2022/05/25 09:09:23;;;;;;;18.02;6.20;;;;;;;;;;5075137;28;20433;-67
2022/05/25 09:11:52;;;;;;;20.15;6.05;;;;;;;;;;5074542;28;20063;-67
2022/05/25 09:14:23;;;;;;;21.35;6.13;;;;;;;;;;5074715;28;20111;-67
2022/05/25 09:16:50;;;;;;;16.30;5.35;;;;;;;;;;5073844;28;20354;-67
2022/05/25 09:19:18;;;;;;;20.10;5.95;;;;;;;;;;5074896;28;20040;-67
2022/05/25 09:21:47;;;;;;;23.67;5.78;;;;;;;;;;5074670;28;20024;-67
2022/05/25 09:24:15;;;;;;;18.17;6.03;;;;;;;;;;5074948;28;20024;-67
2022/05/25 09:26:42;;;;;;;18.05;5.90;;;;;;;;;;5074694;28;20423;-69
2022/05/25 09:29:10;;;;;;;22.17;6.85;;;;;;;;;;5074450;28;20016;-67
2022/05/25 09:31:47;;;;;;;26.42;5.53;;;;;;;;;;5074489;28;20040;-67
2022/05/25 09:34:33;;;;;;;17.38;5.95;;;;;;;;;;5074733;28;20103;-67
2022/05/25 09:37:08;;;;;;;16.80;5.30;;;;;;;;;;5053341;28;20033;-67
2022/05/25 09:39:36;;;;;;;22.75;5.68;;;;;;;;;;5074292;28;20488;-65
2022/05/25 09:42:06;;;;;;;16.42;4.80;;;;;;;;;;5074167;28;20020;-69
2022/05/25 09:44:32;;;;;;;13.75;5.40;;;;;;;;;;5074332;28;20028;-66
2022/05/25 09:47:00;;;;;;;19.30;5.80;;;;;;;;;;5074192;28;20477;-66
2022/05/25 09:49:28;;;;;;;22.60;6.15;;;;;;;;;;5074768;28;20545;-66
2022/05/25 09:51:55;;;;;;;17.33;6.18;;;;;;;;;;5074209;28;20027;-66
2022/05/25 09:54:25;;;;;;;18.20;5.30;;;;;;;;;;5073990;28;20056;-65
2022/05/25 09:56:55;;;;;;;20.73;5.88;;;;;;;;;;5074121;28;20024;-66
2022/05/25 09:59:38;;;;;;;21.52;6.45;;;;;;;;;;5074102;28;20079;-66
2022/05/25 10:02:25;;;;;;;16.67;5.30;;;;;;;;;;5074275;28;20396;-70
2022/05/25 10:04:51;;;;;;;21.17;6.15;;;;;;;;;;5074237;28;20027;-66
2022/05/25 10:07:37;;;;;;;18.15;5.97;;;;;;;;;;5073849;28;20389;-67
2022/05/25 10:10:09;;;;;;;22.33;6.57;;;;;;;;;;5073914;28;20441;-66
2022/05/25 10:12:41;;;;;;;21.65;5.35;;;;;;;;;;5073852;28;20096;-66
2022/05/25 10:15:09;;;;;;;23.27;6.35;;;;;;;;;;5073677;28;20027;-65
2022/05/25 10:17:37;;;;;;;18.52;5.38;;;;;;;;;;5073440;28;20384;-65
2022/05/25 10:20:05;;;;;;;17.42;5.20;;;;;;;;;;5073660;28;20032;-66
2022/05/25 10:22:34;;;;;;;19.08;5.70;;;;;;;;;;5072772;28;20025;-67
2022/05/25 10:25:09;;;;;;;17.23;5.07;;;;;;;;;;5073609;28;20031;-66
2022/05/25 10:27:40;;;;;;;15.93;6.00;;;;;;;;;;5073507;28;20131;-66
2022/05/25 10:38:43;;;;;;;16.45;5.38;;;;;;;;;;5073046;28;20110;-66
2022/05/25 10:44:27;;;;;;;19.75;6.07;;;;;;;;;;5073508;28;20060;-66
2022/05/25 10:46:55;;;;;;;13.90;5.18;;;;;;;;;;5050254;28;20044;-68
2022/05/25 10:49:35;;;;;;;14.77;5.45;;;;;;;;;;5073202;28;20095;-66
2022/05/25 10:52:03;;;;;;;19.98;5.43;;;;;;;;;;5072771;28;20025;-66
2022/05/25 10:54:47;;;;;;;21.27;5.70;;;;;;;;;;5072679;28;20047;-66
2022/05/25 10:57:29;;;;;;;16.23;5.75;;;;;;;;;;5073110;28;20381;-66
2022/05/25 10:59:58;;;;;;;14.70;4.93;;;;;;;;;;5073223;28;20029;-66
2022/05/25 11:02:42;;;;;;;22.75;5.50;;;;;;;;;;5072991;28;20031;-66
2022/05/25 11:05:18;;;;;;;21.33;6.22;;;;;;;;;;5072862;28;20025;-66
2022/05/25 11:07:44;;;;;;;17.65;5.35;;;;;;;;;;5072973;28;20032;-66
2022/05/25 11:10:40;;;;;;;16.27;5.15;;;;;;;;;;5073032;28;20028;-66
2022/05/25 11:13:15;;;;;;;19.65;5.53;;;;;;;;;;5063973;28;20120;-66
2022/05/25 11:16:00;;;;;;;20.10;4.53;;;;;;;;;;5072912;28;20434;-66
2022/05/25 11:18:31;;;;;;;21.08;5.45;;;;;;;;;;5072787;28;20508;-66
2022/05/25 11:20:57;;;;;;;17.92;4.95;;;;;;;;;;5072666;28;20032;-66
2022/05/25 11:23:27;;;;;;;22.75;4.88;;;;;;;;;;5072818;28;20021;-66
2022/05/25 11:26:02;;;;;;;13.35;4.90;;;;;;;;;;5072896;28;20033;-66
2022/05/25 11:28:38;;;;;;;23.75;5.05;;;;;;;;;;5072608;28;20028;-66
2022/05/25 11:31:22;;;;;;;23.10;5.32;;;;;;;;;;5072698;28;20389;-66
2022/05/25 11:34:07;;;;;;;15.55;4.75;;;;;;;;;;5074538;28;20111;-66
2022/05/25 11:36:40;;;;;;;14.90;4.82;;;;;;;;;;5076809;28;20508;-66
2022/05/25 11:39:14;;;;;;;21.25;5.43;;;;;;;;;;5076675;28;20036;-66
2022/05/25 11:41:53;;;;;;;12.13;4.38;;;;;;;;;;5076553;28;20017;-66
2022/05/25 11:44:37;;;;;;;22.25;5.38;;;;;;;;;;5076515;28;20063;-66
2022/05/25 11:47:12;;;;;;;19.73;5.57;;;;;;;;;;5076850;28;20405;-67
2022/05/25 11:49:46;;;;;;;24.33;5.38;;;;;;;;;;5076801;28;20047;-66
2022/05/25 11:52:31;;;;;;;23.10;5.53;;;;;;;;;;5076306;28;20107;-66
2022/05/25 11:55:16;;;;;;;17.85;5.78;;;;;;;;;;5076018;28;20163;-67
2022/05/25 11:58:01;;;;;;;19.98;6.68;;;;;;;;;;5076266;28;20025;-66
2022/05/25 12:00:50;;;;;;;25.77;5.50;;;;;;;;;;5076120;28;20037;-66
2022/05/25 12:03:34;;;;;;;15.65;5.38;;;;;;;;;;5075796;28;20024;-68
2022/05/25 12:06:14;;;;;;;26.38;5.07;;;;;;;;;;5075762;28;20035;-67
2022/05/25 12:08:47;;;;;;;21.77;5.28;;;;;;;;;;5076331;28;20424;-66
2022/05/25 12:11:26;;;;;;;19.92;4.93;;;;;;;;;;5076012;28;20028;-66
2022/05/25 12:13:55;;;;;;;25.52;5.53;;;;;;;;;;5075926;28;20476;-66
2022/05/25 12:16:30;;;;;;;17.15;5.60;;;;;;;;;;5075930;28;20116;-66
2022/05/25 12:19:02;;;;;;;24.05;5.57;;;;;;;;;;5075093;28;20062;-66
2022/05/25 12:21:32;;;;;;;19.10;5.10;;;;;;;;;;5075405;28;20035;-66
2022/05/25 12:24:02;;;;;;;19.02;5.38;;;;;;;;;;5074955;28;20037;-67
2022/05/25 12:26:30;;;;;;;19.98;4.40;;;;;;;;;;5074616;28;20025;-67
2022/05/25 12:29:09;;;;;;;15.57;4.60;;;;;;;;;;5075401;28;20039;-66
2022/05/25 12:31:35;;;;;;;18.80;5.00;;;;;;;;;;5075838;28;20166;-66
2022/05/25 12:34:02;;;;;;;14.85;4.18;;;;;;;;;;5075144;28;20024;-65
2022/05/25 12:36:28;;;;;;;14.30;4.25;;;;;;;;;;5074565;28;20032;-66
2022/05/25 12:38:54;;;;;;;14.45;4.45;;;;;;;;;;5074477;28;20040;-69
2022/05/25 12:41:25;;;;;;;22.35;4.97;;;;;;;;;;5074125;28;20027;-68
2022/05/25 12:43:53;;;;;;;17.20;4.47;;;;;;;;;;5074019;28;20154;-69
2022/05/25 12:49:34;;;;;;;16.63;4.43;;;;;;;;;;5037533;28;20553;-67
2022/05/25 12:52:00;;;;;;;12.90;3.67;;;;;;;;;;5074448;28;20401;-67
2022/05/25 12:54:30;;;;;;;18.27;4.30;;;;;;;;;;5073421;28;20049;-70
2022/05/25 12:56:57;;;;;;;18.10;4.43;;;;;;;;;;5072469;28;20423;-70
2022/05/25 12:59:26;;;;;;;15.20;4.43;;;;;;;;;;5071558;28;20090;-69
2022/05/25 13:02:11;;;;;;;13.23;4.38;;;;;;;;;;5070651;28;20062;-68
2022/05/25 13:04:50;;;;;;;18.05;4.93;;;;;;;;;;5073542;28;20016;-68
2022/05/25 13:07:36;;;;;;;18.77;4.95;;;;;;;;;;5074188;28;20024;-69
2022/05/25 13:10:04;;;;;;;16.98;4.30;;;;;;;;;;5074655;28;20085;-68
2022/05/25 13:12:56;;;;;;;19.60;5.45;;;;;;;;;;5074322;28;20077;-68
2022/05/25 13:15:22;;;;;;;14.95;4.32;;;;;;;;;;5072427;28;20032;-67
2022/05/25 13:17:50;;;;;;;14.40;4.32;;;;;;;;;;5074162;28;20035;-68
2022/05/25 13:20:28;;;;;;;13.82;4.82;;;;;;;;;;5074438;28;20036;-68
2022/05/25 13:23:01;;;;;;;14.65;4.30;;;;;;;;;;5073855;28;20048;-69
2022/05/25 13:25:27;;;;;;;14.57;3.78;;;;;;;;;;5072052;28;20102;-68
2022/05/25 13:28:02;;;;;;;15.77;4.18;;;;;;;;;;5070943;28;20081;-68
2022/05/25 13:30:40;;;;;;;16.60;3.85;;;;;;;;;;5072565;28;20492;-67
2022/05/25 13:33:21;;;;;;;16.05;4.65;;;;;;;;;;5074011;28;20028;-68
2022/05/25 13:36:07;;;;;;;15.85;4.22;;;;;;;;;;5074056;28;20032;-67
2022/05/25 13:38:51;;;;;;;16.65;5.18;;;;;;;;;;5073483;28;20354;-67
2022/05/25 13:41:19;;;;;;;20.60;5.00;;;;;;;;;;5073449;28;20025;-67
2022/05/25 13:43:50;;;;;;;15.68;4.25;;;;;;;;;;5073121;28;20414;-69
2022/05/25 13:46:33;;;;;;;15.82;5.22;;;;;;;;;;5073948;28;20129;-67
2022/05/25 13:48:59;;;;;;;14.68;4.57;;;;;;;;;;5073683;28;20099;-67
2022/05/25 13:51:26;;;;;;;13.45;4.22;;;;;;;;;;5071789;28;20029;-67
2022/05/25 13:53:52;;;;;;;16.00;4.63;;;;;;;;;;5073544;28;20057;-67
2022/05/25 13:56:27;;;;;;;15.05;4.53;;;;;;;;;;5073973;28;20461;-67
2022/05/25 13:58:57;;;;;;;18.52;4.65;;;;;;;;;;5074018;28;20041;-67
2022/05/25 14:01:23;;;;;;;16.55;4.43;;;;;;;;;;5073484;28;20028;-67
2022/05/25 14:03:53;;;;;;;15.60;4.20;;;;;;;;;;5073642;28;20044;-68
2022/05/25 14:06:19;;;;;;;20.45;4.65;;;;;;;;;;5073788;28;20078;-68
2022/05/25 14:11:43;;;;;;;17.95;4.70;;;;;;;;;;5073377;28;20124;-67
2022/05/25 14:14:19;;;;;;;20.48;4.82;;;;;;;;;;5072238;28;20058;-67
2022/05/25 14:16:52;;;;;;;20.50;5.55;;;;;;;;;;5071804;28;20039;-67
2022/05/25 14:19:29;;;;;;;13.20;4.13;;;;;;;;;;5072684;28;20082;-70
2022/05/25 14:21:58;;;;;;;14.75;4.35;;;;;;;;;;5071364;28;20021;-67
2022/05/25 14:24:27;;;;;;;19.50;4.43;;;;;;;;;;5072122;28;20039;-67
2022/05/25 14:26:55;;;;;;;16.23;4.00;;;;;;;;;;5073437;28;20104;-67
2022/05/25 14:29:23;;;;;;;22.08;4.85;;;;;;;;;;5073004;28;20074;-67
2022/05/25 14:31:50;;;;;;;21.10;4.65;;;;;;;;;;5073120;28;20025;-67
2022/05/25 14:34:18;;;;;;;16.33;4.63;;;;;;;;;;5073227;28;20029;-67
2022/05/25 14:36:45;;;;;;;21.45;4.75;;;;;;;;;;5072831;28;20129;-67
2022/05/25 14:39:14;;;;;;;17.88;4.28;;;;;;;;;;5072112;28;20508;-66
2022/05/25 14:41:50;;;;;;;18.75;4.35;;;;;;;;;;5073091;28;20358;-67
2022/05/25 14:44:36;;;;;;;13.63;3.90;;;;;;;;;;5073296;28;20427;-67
2022/05/25 14:47:09;;;;;;;17.23;4.43;;;;;;;;;;5072636;28;20036;-66
2022/05/25 14:49:36;;;;;;;16.50;3.85;;;;;;;;;;5072932;28;20443;-67
2022/05/25 14:52:02;;;;;;;17.58;4.30;;;;;;;;;;5072775;28;20035;-67
2022/05/25 14:54:29;;;;;;;17.00;3.85;;;;;;;;;;5072400;28;20056;-66
2022/05/25 14:56:57;;;;;;;17.92;4.35;;;;;;;;;;5072687;28;20098;-66
2022/05/25 14:59:49;;;;;;;18.25;3.90;;;;;;;;;;5072766;28;20044;-67
2022/05/25 15:02:23;;;;;;;18.67;4.40;;;;;;;;;;5070176;28;20028;-67
2022/05/25 15:04:49;;;;;;;14.25;4.60;;;;;;;;;;5072048;28;20082;-66
2022/05/25 15:07:22;;;;;;;15.50;4.30;;;;;;;;;;5072095;28;20020;-66
2022/05/25 15:09:48;;;;;;;23.75;4.57;;;;;;;;;;5071978;28;20466;-66
2022/05/25 15:12:17;;;;;;;22.23;4.85;;;;;;;;;;5072867;28;20029;-67
2022/05/25 15:20:32;;;;;;;16.60;4.18;;;;;;;;;;5072624;28;20047;-67
2022/05/25 15:23:00;;;;;;;21.15;4.63;;;;;;;;;;5072523;28;20404;-66
2022/05/25 15:25:32;;;;;;;17.90;5.10;;;;;;;;;;5072678;28;20041;-70
2022/05/25 15:28:04;;;;;;;15.57;4.60;;;;;;;;;;5072651;28;20061;-67